createdAt,value
2018-07-28T00:01:00.693Z,98.71
2018-07-28T00:03:29.865Z,99.01
2018-07-28T00:05:59.103Z,99.22
2018-07-28T00:08:28.321Z,98.75
2018-07-28T00:10:57.605Z,99.13
2018-07-28T00:13:27.346Z,98.90
2018-07-28T00:15:56.657Z,99.21
2018-07-28T00:18:25.837Z,99.11
2018-07-28T00:20:55.027Z,98.46
2018-07-28T00:23:24.214Z,98.74
2018-07-28T00:25:58.536Z,98.05
2018-07-28T00:28:27.777Z,98.44
2018-07-28T00:30:56.953Z,99.63
2018-07-28T00:33:26.092Z,100.00
2018-07-28T00:35:55.354Z,100.00
2018-07-28T00:38:24.685Z,100.00
2018-07-28T00:40:53.853Z,100.00
2018-07-28T00:43:23.041Z,100.00
2018-07-28T00:45:52.218Z,100.00
2018-07-28T00:48:21.442Z,100.00
2018-07-28T00:50:50.660Z,100.00
2018-07-28T00:53:19.852Z,100.00
2018-07-28T00:55:49.060Z,100.00
2018-07-28T00:58:18.275Z,100.00
2018-07-28T01:00:47.610Z,100.00
2018-07-28T01:03:16.824Z,100.00
2018-07-28T01:05:46.033Z,100.00
2018-07-28T01:08:15.167Z,100.00
2018-07-28T01:10:44.408Z,100.00
2018-07-28T01:13:14.449Z,100.00
2018-07-28T01:15:43.643Z,100.00
2018-07-28T01:18:12.859Z,100.00
2018-07-28T01:20:42.006Z,100.00
2018-07-28T01:23:11.208Z,100.00
2018-07-28T01:25:40.407Z,100.00
2018-07-28T01:28:09.643Z,100.00
2018-07-28T01:30:38.832Z,100.00
2018-07-28T01:33:08.269Z,100.00
2018-07-28T01:35:37.464Z,100.00
2018-07-28T01:38:06.616Z,100.00
2018-07-28T01:40:35.877Z,100.00
2018-07-28T01:43:05.187Z,100.00
2018-07-28T01:45:34.367Z,100.00
2018-07-28T01:48:03.578Z,100.00
2018-07-28T01:50:32.801Z,100.00
2018-07-28T01:53:02.011Z,100.00
2018-07-28T01:55:31.221Z,100.00
2018-07-28T01:58:00.380Z,100.00
2018-07-28T02:00:29.570Z,100.00
2018-07-28T02:02:58.937Z,100.00
2018-07-28T02:05:28.093Z,100.00
2018-07-28T02:07:57.291Z,100.00
2018-07-28T02:10:26.485Z,100.00
2018-07-28T02:12:55.704Z,100.00
2018-07-28T02:15:24.872Z,100.00
2018-07-28T02:17:54.045Z,100.00
2018-07-28T02:20:23.257Z,100.00
2018-07-28T02:22:52.391Z,100.00
2018-07-28T02:25:21.566Z,100.00
2018-07-28T02:27:50.767Z,100.00
2018-07-28T02:30:20.421Z,100.00
2018-07-28T02:32:49.649Z,100.00
2018-07-28T02:35:18.817Z,100.00
2018-07-28T02:37:48.080Z,100.00
2018-07-28T02:40:17.331Z,100.00
2018-07-28T02:42:46.512Z,100.00
2018-07-28T02:45:15.856Z,100.00
2018-07-28T02:47:45.003Z,100.00
2018-07-28T02:50:14.202Z,100.00
2018-07-28T02:52:43.384Z,100.00
2018-07-28T02:55:12.587Z,100.00
2018-07-28T02:57:41.776Z,100.00
2018-07-28T03:00:10.981Z,100.00
2018-07-28T03:02:40.162Z,100.00
2018-07-28T03:05:09.497Z,100.00
2018-07-28T03:07:38.687Z,100.00
2018-07-28T03:10:08.504Z,100.00
2018-07-28T03:12:37.751Z,100.00
2018-07-28T03:15:24.849Z,100.00
2018-07-28T03:17:54.126Z,100.00
2018-07-28T03:20:23.902Z,100.00
2018-07-28T03:22:53.255Z,100.00
2018-07-28T03:25:22.455Z,100.00
2018-07-28T03:27:51.687Z,100.00
2018-07-28T03:30:20.872Z,100.00
2018-07-28T03:32:50.093Z,100.00
2018-07-28T03:35:19.236Z,100.00
2018-07-28T03:37:48.400Z,100.00
2018-07-28T03:40:17.703Z,100.00
2018-07-28T03:42:47.398Z,100.00
2018-07-28T03:45:16.532Z,100.00
2018-07-28T03:47:45.724Z,100.00
2018-07-28T03:50:14.868Z,100.00
2018-07-28T03:52:44.050Z,100.00
2018-07-28T03:55:13.222Z,100.00
2018-07-28T03:57:42.472Z,100.00
2018-07-28T04:00:12.808Z,100.00
2018-07-28T04:02:42.008Z,100.00
2018-07-28T04:05:12.441Z,100.00
2018-07-28T04:07:41.657Z,100.00
2018-07-28T04:10:11.093Z,100.00
2018-07-28T04:12:40.444Z,100.00
2018-07-28T04:15:12.080Z,100.00
2018-07-28T04:17:45.379Z,100.00
2018-07-28T04:20:15.050Z,100.00
2018-07-28T04:22:44.188Z,100.00
2018-07-28T04:25:13.489Z,100.00
2018-07-28T04:27:42.724Z,100.00
2018-07-28T04:30:11.900Z,100.00
2018-07-28T04:32:41.164Z,100.00
2018-07-28T04:35:10.504Z,100.00
2018-07-28T04:37:40.237Z,100.00
2018-07-28T04:40:10.994Z,100.00
2018-07-28T04:42:40.886Z,100.00
2018-07-28T04:45:10.197Z,100.00
2018-07-28T04:47:39.415Z,100.00
2018-07-28T04:50:08.621Z,100.00
2018-07-28T04:52:37.831Z,100.00
2018-07-28T04:55:07.429Z,100.00
2018-07-28T04:57:36.616Z,100.00
2018-07-28T05:00:06.316Z,100.00
2018-07-28T05:02:35.605Z,100.00
2018-07-28T05:05:05.180Z,100.00
2018-07-28T05:07:34.481Z,100.00
2018-07-28T05:10:03.654Z,100.00
2018-07-28T05:12:32.791Z,100.00
2018-07-28T05:15:01.950Z,100.00
2018-07-28T05:17:31.170Z,100.00
2018-07-28T05:20:00.348Z,100.00
2018-07-28T05:22:29.509Z,100.00
2018-07-28T05:24:58.663Z,100.00
2018-07-28T05:27:27.873Z,100.00
2018-07-28T05:29:57.030Z,100.00
2018-07-28T05:32:26.226Z,100.00
2018-07-28T05:34:55.372Z,100.00
2018-07-28T05:37:24.581Z,100.00
2018-07-28T05:39:53.761Z,100.00
2018-07-28T05:42:22.973Z,99.95
2018-07-28T05:44:52.138Z,99.60
2018-07-28T05:47:21.344Z,99.08
2018-07-28T05:49:50.484Z,98.07
2018-07-28T05:52:19.659Z,98.66
2018-07-28T05:54:48.815Z,98.45
2018-07-28T05:57:18.124Z,97.77
2018-07-28T05:59:47.310Z,97.72
2018-07-28T06:02:16.611Z,97.11
2018-07-28T06:04:45.734Z,96.23
2018-07-28T06:07:14.945Z,96.37
2018-07-28T06:09:44.202Z,95.41
2018-07-28T06:12:13.366Z,94.90
2018-07-28T06:14:42.585Z,94.68
2018-07-28T06:17:11.861Z,93.67
2018-07-28T06:19:41.041Z,93.78
2018-07-28T06:22:10.190Z,93.59
2018-07-28T06:24:39.354Z,93.67
2018-07-28T06:27:08.813Z,93.53
2018-07-28T06:29:37.987Z,93.64
2018-07-28T06:32:08.344Z,92.08
2018-07-28T06:34:37.509Z,91.51
2018-07-28T06:37:06.841Z,91.08
2018-07-28T06:39:36.021Z,90.21
2018-07-28T06:42:05.167Z,89.91
2018-07-28T06:44:34.325Z,90.46
2018-07-28T06:47:03.488Z,90.71
2018-07-28T06:49:32.992Z,89.62
2018-07-28T06:52:02.219Z,88.21
2018-07-28T06:54:31.450Z,87.57
2018-07-28T06:57:00.749Z,88.30
2018-07-28T06:59:30.010Z,88.62
2018-07-28T07:01:59.166Z,88.23
2018-07-28T07:04:28.323Z,87.35
2018-07-28T07:06:57.529Z,87.92
2018-07-28T07:09:26.721Z,86.28
2018-07-28T07:11:55.997Z,85.92
2018-07-28T07:14:25.162Z,86.07
2018-07-28T07:16:54.329Z,85.59
2018-07-28T07:19:23.505Z,86.31
2018-07-28T07:21:52.671Z,84.89
2018-07-28T07:24:21.830Z,85.07
2018-07-28T07:26:51.046Z,85.03
2018-07-28T07:29:20.210Z,85.15
2018-07-28T07:31:49.428Z,85.06
2018-07-28T07:34:18.641Z,85.40
2018-07-28T07:36:47.880Z,84.81
2018-07-28T07:39:17.172Z,83.82
2018-07-28T07:41:46.402Z,84.96
2018-07-28T07:44:15.551Z,84.21
2018-07-28T07:46:44.712Z,83.10
2018-07-28T07:49:14.219Z,82.83
2018-07-28T07:51:43.437Z,81.52
2018-07-28T07:54:12.610Z,79.56
2018-07-28T07:56:41.761Z,80.42
2018-07-28T07:59:10.928Z,80.29
2018-07-28T08:01:40.179Z,80.58
2018-07-28T08:04:09.415Z,80.08
2018-07-28T08:06:38.589Z,77.20
2018-07-28T08:09:09.098Z,78.61
2018-07-28T08:11:38.297Z,79.45
2018-07-28T08:14:07.502Z,76.30
2018-07-28T08:16:36.713Z,76.29
2018-07-28T08:19:06.044Z,76.89
2018-07-28T08:21:36.145Z,75.74
2018-07-28T08:24:05.425Z,74.27
2018-07-28T08:26:34.589Z,76.95
2018-07-28T08:29:03.762Z,74.61
2018-07-28T08:31:32.944Z,75.72
2018-07-28T08:34:02.143Z,74.26
2018-07-28T08:36:31.301Z,73.88
2018-07-28T08:39:00.473Z,75.48
2018-07-28T08:41:29.632Z,73.94
2018-07-28T08:43:58.794Z,73.63
2018-07-28T08:46:27.972Z,73.35
2018-07-28T08:48:57.227Z,71.45
2018-07-28T08:51:26.280Z,73.33
2018-07-28T08:53:55.440Z,70.70
2018-07-28T08:56:24.581Z,70.89
2018-07-28T08:58:53.810Z,70.90
2018-07-28T09:01:23.037Z,69.87
2018-07-28T09:03:52.247Z,69.46
2018-07-28T09:06:21.448Z,68.99
2018-07-28T09:08:51.553Z,66.93
2018-07-28T09:11:20.733Z,66.86
2018-07-28T09:13:49.873Z,68.29
2018-07-28T09:16:19.162Z,66.63
2018-07-28T09:18:48.342Z,67.17
2018-07-28T09:21:17.466Z,64.59
2018-07-28T09:23:46.636Z,64.80
2018-07-28T09:26:15.817Z,66.36
2018-07-28T09:28:45.003Z,65.14
2018-07-28T09:31:14.184Z,65.14
2018-07-28T09:33:43.326Z,65.53
2018-07-28T09:36:12.537Z,64.90
2018-07-28T09:38:41.676Z,64.11
2018-07-28T09:41:11.378Z,66.11
2018-07-28T09:43:40.614Z,64.39
2018-07-28T09:46:09.768Z,64.02
2018-07-28T09:48:38.906Z,63.63
2018-07-28T09:51:08.338Z,62.43
2018-07-28T09:53:37.465Z,63.77
2018-07-28T09:56:06.674Z,61.08
2018-07-28T09:58:35.785Z,60.44
2018-07-28T10:01:10.219Z,61.82
2018-07-28T10:03:39.412Z,61.07
2018-07-28T10:06:08.635Z,56.67
2018-07-28T10:08:37.798Z,57.43
2018-07-28T10:11:07.668Z,56.99
2018-07-28T10:13:36.773Z,59.84
2018-07-28T10:16:06.013Z,55.41
2018-07-28T10:18:35.180Z,56.75
2018-07-28T10:21:04.592Z,55.26
2018-07-28T10:23:34.249Z,56.01
2018-07-28T10:26:03.487Z,54.25
2018-07-28T10:28:32.657Z,56.51
2018-07-28T10:31:01.844Z,53.93
2018-07-28T10:33:31.016Z,53.84
2018-07-28T10:36:00.137Z,55.15
2018-07-28T10:38:29.396Z,53.77
2018-07-28T10:40:58.550Z,56.16
2018-07-28T10:43:27.732Z,51.58
2018-07-28T10:45:56.926Z,52.84
2018-07-28T10:48:26.065Z,55.24
2018-07-28T10:50:55.209Z,52.61
2018-07-28T10:53:24.487Z,53.90
2018-07-28T10:55:53.659Z,52.81
2018-07-28T10:58:22.826Z,51.83
2018-07-28T11:00:52.039Z,52.22
2018-07-28T11:03:21.283Z,51.98
2018-07-28T11:05:50.433Z,51.17
2018-07-28T11:08:19.589Z,51.45
2018-07-28T11:10:48.736Z,50.56
2018-07-28T11:13:17.982Z,52.63
2018-07-28T11:15:47.143Z,52.25
2018-07-28T11:18:16.333Z,50.48
2018-07-28T11:20:45.579Z,47.77
2018-07-28T11:23:51.161Z,48.52
2018-07-28T11:26:22.080Z,46.59
2018-07-28T11:28:52.128Z,45.98
2018-07-28T11:31:32.886Z,46.16
2018-07-28T11:34:13.041Z,44.95
2018-07-28T11:36:54.103Z,46.89
2018-07-28T11:39:34.510Z,43.54
2018-07-28T11:42:14.885Z,45.76
2018-07-28T11:45:09.668Z,45.87
2018-07-28T11:47:38.805Z,44.75
2018-07-28T11:50:07.975Z,42.18
2018-07-28T11:52:37.206Z,39.88
2018-07-28T11:55:06.658Z,41.56
2018-07-28T11:57:35.805Z,39.95
2018-07-28T12:00:06.446Z,40.49
2018-07-28T12:02:35.674Z,41.64
2018-07-28T12:05:04.976Z,41.44
2018-07-28T12:07:34.266Z,40.40
2018-07-28T12:10:03.473Z,40.44
2018-07-28T12:12:32.693Z,40.94
2018-07-28T12:15:01.958Z,41.51
2018-07-28T12:17:31.142Z,40.02
2018-07-28T12:20:00.283Z,37.10
2018-07-28T12:22:29.657Z,38.56
2018-07-28T12:24:58.801Z,40.70
2018-07-28T12:27:27.954Z,40.01
2018-07-28T12:29:57.136Z,38.02
2018-07-28T12:32:26.341Z,36.40
2018-07-28T12:34:55.532Z,35.75
2018-07-28T12:37:24.637Z,37.93
2018-07-28T12:39:53.748Z,36.35
2018-07-28T12:42:22.881Z,35.96
2018-07-28T12:44:52.419Z,36.56
2018-07-28T12:47:21.582Z,36.09
2018-07-28T12:49:50.717Z,36.95
2018-07-28T12:52:19.945Z,38.84
2018-07-28T12:54:49.129Z,36.08
2018-07-28T12:57:18.328Z,37.91
2018-07-28T12:59:47.468Z,36.81
2018-07-28T13:02:16.669Z,35.59
2018-07-28T13:04:45.837Z,35.52
2018-07-28T13:07:15.030Z,35.76
2018-07-28T13:09:44.178Z,34.10
2018-07-28T13:12:13.334Z,37.61
2018-07-28T13:14:42.543Z,37.13
2018-07-28T13:17:11.737Z,37.87
2018-07-28T13:19:40.849Z,36.91
2018-07-28T13:22:10.042Z,34.58
2018-07-28T13:24:39.260Z,35.19
2018-07-28T13:27:08.525Z,36.53
2018-07-28T13:29:37.708Z,36.59
2018-07-28T13:32:06.885Z,35.00
2018-07-28T13:34:36.036Z,39.16
2018-07-28T13:37:05.652Z,36.06
2018-07-28T13:39:34.894Z,37.53
2018-07-28T13:42:04.135Z,37.72
2018-07-28T13:44:33.249Z,36.94
2018-07-28T13:47:02.411Z,38.75
2018-07-28T13:49:31.566Z,37.11
2018-07-28T13:52:00.685Z,38.07
2018-07-28T13:54:29.829Z,38.71
2018-07-28T13:56:58.965Z,38.79
2018-07-28T13:59:28.198Z,38.54
2018-07-28T14:01:57.376Z,38.90
2018-07-28T14:04:26.536Z,39.36
2018-07-28T14:06:55.715Z,35.40
2018-07-28T14:09:24.895Z,34.59
2018-07-28T14:11:54.038Z,36.81
2018-07-28T14:14:23.188Z,36.85
2018-07-28T14:16:52.360Z,35.56
2018-07-28T14:19:21.505Z,36.14
2018-07-28T14:21:50.697Z,35.36
2018-07-28T14:24:19.889Z,37.38
2018-07-28T14:26:49.058Z,37.26
2018-07-28T14:29:18.232Z,35.82
2018-07-28T14:31:47.361Z,36.11
2018-07-28T14:34:16.559Z,35.54
2018-07-28T14:36:45.730Z,34.95
2018-07-28T14:39:14.895Z,34.48
2018-07-28T14:41:44.069Z,35.79
2018-07-28T14:44:13.241Z,36.83
2018-07-28T14:46:42.445Z,38.20
2018-07-28T14:49:11.570Z,36.96
2018-07-28T14:51:40.815Z,34.87
2018-07-28T14:54:09.940Z,35.55
2018-07-28T14:56:39.143Z,35.84
2018-07-28T14:59:08.471Z,34.75
2018-07-28T15:01:37.616Z,34.71
2018-07-28T15:04:06.999Z,33.86
2018-07-28T15:06:36.151Z,34.51
2018-07-28T15:09:07.363Z,34.38
2018-07-28T15:11:36.524Z,33.09
2018-07-28T15:14:05.716Z,34.63
2018-07-28T15:16:34.924Z,32.99
2018-07-28T15:19:04.139Z,33.47
2018-07-28T15:21:33.359Z,33.07
2018-07-28T15:24:02.510Z,32.20
2018-07-28T15:26:31.630Z,33.15
2018-07-28T15:29:00.804Z,34.45
2018-07-28T15:31:29.962Z,34.32
2018-07-28T15:33:59.102Z,35.19
2018-07-28T15:36:28.304Z,34.29
2018-07-28T15:38:57.465Z,33.88
2018-07-28T15:41:26.626Z,33.56
2018-07-28T15:43:55.812Z,35.77
2018-07-28T15:46:24.962Z,33.77
2018-07-28T15:48:54.177Z,33.02
2018-07-28T15:51:23.333Z,34.19
2018-07-28T15:53:52.478Z,34.29
2018-07-28T15:56:21.674Z,33.46
2018-07-28T15:58:50.882Z,35.42
2018-07-28T16:01:20.087Z,34.12
2018-07-28T16:03:49.201Z,33.86
2018-07-28T16:06:18.416Z,34.03
2018-07-28T16:08:47.610Z,35.93
2018-07-28T16:11:16.746Z,35.19
2018-07-28T16:13:46.433Z,35.73
2018-07-28T16:16:15.575Z,35.10
2018-07-28T16:18:44.766Z,35.45
2018-07-28T16:21:13.937Z,35.81
2018-07-28T16:23:43.138Z,37.25
2018-07-28T16:26:12.286Z,37.15
2018-07-28T16:28:41.494Z,37.68
2018-07-28T16:31:11.573Z,37.31
2018-07-28T16:33:40.761Z,37.48
2018-07-28T16:36:09.942Z,37.35
2018-07-28T16:38:39.077Z,38.55
2018-07-28T16:41:08.484Z,38.47
2018-07-28T16:43:37.673Z,38.32
2018-07-28T16:46:07.310Z,38.79
2018-07-28T16:48:37.222Z,39.27
2018-07-28T16:51:06.616Z,39.15
2018-07-28T16:53:35.791Z,39.52
2018-07-28T16:56:05.413Z,39.43
2018-07-28T16:58:34.541Z,39.30
2018-07-28T17:01:03.692Z,38.73
2018-07-28T17:03:32.883Z,39.76
2018-07-28T17:06:02.045Z,39.72
2018-07-28T17:08:31.209Z,40.85
2018-07-28T17:11:00.382Z,40.41
2018-07-28T17:13:29.578Z,40.16
2018-07-28T17:15:58.846Z,41.78
2018-07-28T17:18:31.709Z,42.14
2018-07-28T17:21:00.868Z,42.24
2018-07-28T17:23:30.019Z,42.36
2018-07-28T17:25:59.776Z,42.87
2018-07-28T17:28:28.969Z,42.35
2018-07-28T17:30:58.270Z,43.27
2018-07-28T17:33:27.394Z,44.37
2018-07-28T17:35:56.554Z,45.79
2018-07-28T17:38:25.729Z,45.22
2018-07-28T17:40:54.887Z,45.70
2018-07-28T17:43:24.039Z,45.08
2018-07-28T17:45:53.189Z,43.48
2018-07-28T17:48:22.492Z,42.95
2018-07-28T17:50:52.110Z,44.36
2018-07-28T17:53:21.409Z,46.48
2018-07-28T17:55:50.490Z,46.57
2018-07-28T17:58:19.671Z,46.29
2018-07-28T18:00:48.837Z,47.26
2018-07-28T18:03:18.072Z,48.27
2018-07-28T18:05:47.216Z,49.55
2018-07-28T18:08:17.992Z,51.01
2018-07-28T18:10:48.320Z,50.64
2018-07-28T18:13:17.482Z,51.01
2018-07-28T18:15:46.625Z,50.76
2018-07-28T18:18:15.865Z,52.26
2018-07-28T18:20:44.988Z,51.37
2018-07-28T18:23:14.306Z,51.39
2018-07-28T18:25:43.561Z,51.40
2018-07-28T18:28:12.650Z,51.89
2018-07-28T18:30:41.795Z,50.98
2018-07-28T18:33:10.978Z,53.18
2018-07-28T18:35:40.170Z,55.37
2018-07-28T18:38:09.354Z,56.24
2018-07-28T18:40:38.633Z,56.65
2018-07-28T18:43:07.944Z,56.23
2018-07-28T18:45:37.130Z,58.29
2018-07-28T18:48:06.448Z,57.82
2018-07-28T18:50:35.618Z,57.99
2018-07-28T18:53:04.804Z,58.23
2018-07-28T18:55:33.997Z,58.05
2018-07-28T18:58:03.189Z,58.49
2018-07-28T19:00:32.397Z,57.96
2018-07-28T19:03:01.596Z,59.58
2018-07-28T19:05:30.736Z,60.15
2018-07-28T19:07:59.921Z,61.81
2018-07-28T19:10:29.081Z,62.26
2018-07-28T19:13:03.578Z,62.47
2018-07-28T19:15:32.761Z,63.25
2018-07-28T19:18:07.128Z,63.79
2018-07-28T19:20:36.278Z,63.04
2018-07-28T19:23:10.479Z,63.85
2018-07-28T19:25:39.644Z,64.05
2018-07-28T19:28:14.014Z,63.87
2018-07-28T19:30:43.172Z,64.23
2018-07-28T19:33:12.312Z,64.21
2018-07-28T19:35:46.787Z,63.97
2018-07-28T19:38:15.983Z,64.82
2018-07-28T19:40:45.102Z,64.26
2018-07-28T19:43:14.270Z,65.08
2018-07-28T19:45:43.431Z,65.37
2018-07-28T19:48:12.599Z,65.55
2018-07-28T19:50:41.780Z,64.65
2018-07-28T19:53:12.191Z,64.26
2018-07-28T19:55:41.344Z,63.84
2018-07-28T19:58:10.500Z,63.96
2018-07-28T20:00:39.649Z,62.69
2018-07-28T20:03:08.979Z,62.98
2018-07-28T20:05:38.160Z,63.42
2018-07-28T20:08:07.400Z,63.61
2018-07-28T20:10:36.551Z,63.22
2018-07-28T20:13:05.757Z,63.54
2018-07-28T20:15:34.933Z,64.10
2018-07-28T20:18:04.121Z,63.37
2018-07-28T20:20:34.628Z,63.74
2018-07-28T20:23:03.793Z,64.02
2018-07-28T20:25:32.935Z,64.02
2018-07-28T20:28:02.085Z,64.25
2018-07-28T20:30:31.235Z,64.32
2018-07-28T20:33:00.434Z,63.88
2018-07-28T20:35:29.649Z,64.15
2018-07-28T20:37:58.837Z,63.79
2018-07-28T20:40:28.032Z,63.79
2018-07-28T20:42:57.198Z,63.20
2018-07-28T20:45:26.367Z,64.17
2018-07-28T20:47:55.497Z,63.40
2018-07-28T20:50:24.709Z,63.38
2018-07-28T20:52:53.875Z,63.78
2018-07-28T20:55:23.033Z,63.96
2018-07-28T20:57:52.194Z,63.39
2018-07-28T21:00:21.368Z,63.63
2018-07-28T21:02:50.522Z,63.38
2018-07-28T21:05:19.697Z,63.45
2018-07-28T21:07:48.816Z,63.71
2018-07-28T21:10:17.990Z,63.58
2018-07-28T21:12:47.144Z,64.14
2018-07-28T21:15:16.305Z,64.00
2018-07-28T21:17:45.450Z,63.94
2018-07-28T21:20:14.623Z,64.12
2018-07-28T21:22:43.842Z,64.44
2018-07-28T21:25:13.006Z,64.82
2018-07-28T21:27:42.187Z,65.13
2018-07-28T21:30:11.372Z,64.67
2018-07-28T21:32:40.546Z,65.23
2018-07-28T21:35:09.876Z,64.93
2018-07-28T21:37:38.988Z,65.81
2018-07-28T21:40:08.197Z,65.38
2018-07-28T21:42:37.413Z,65.48
2018-07-28T21:45:06.608Z,65.96
2018-07-28T21:47:35.807Z,65.99
2018-07-28T21:50:05.182Z,65.79
2018-07-28T21:52:34.356Z,65.34
2018-07-28T21:55:03.672Z,65.14
2018-07-28T21:57:32.838Z,65.38
2018-07-28T22:00:01.998Z,64.98
2018-07-28T22:02:31.224Z,64.62
2018-07-28T22:05:00.440Z,64.55
2018-07-28T22:07:29.525Z,64.61
2018-07-28T22:09:58.689Z,65.36
2018-07-28T22:12:27.890Z,65.39
2018-07-28T22:14:57.082Z,64.97
2018-07-28T22:17:26.218Z,65.86
2018-07-28T22:19:55.357Z,65.15
2018-07-28T22:22:24.504Z,65.65
2018-07-28T22:24:53.653Z,65.41
2018-07-28T22:27:23.159Z,65.69
2018-07-28T22:29:52.448Z,65.80
2018-07-28T22:32:21.636Z,65.30
2018-07-28T22:34:50.852Z,66.25
2018-07-28T22:37:19.977Z,66.30
2018-07-28T22:39:49.137Z,66.68
2018-07-28T22:42:18.380Z,67.64
2018-07-28T22:44:47.519Z,67.64
2018-07-28T22:47:16.647Z,68.35
2018-07-28T22:49:45.815Z,68.01
2018-07-28T22:52:14.994Z,68.04
2018-07-28T22:54:44.131Z,68.58
2018-07-28T22:57:13.286Z,68.11
2018-07-28T22:59:42.452Z,68.56
2018-07-28T23:02:11.653Z,68.78
2018-07-28T23:04:40.792Z,69.17
2018-07-28T23:07:10.934Z,68.76
2018-07-28T23:09:40.102Z,69.05
2018-07-28T23:12:12.448Z,69.27
2018-07-28T23:14:43.308Z,70.36
2018-07-28T23:17:12.457Z,69.84
2018-07-28T23:19:41.868Z,70.73
2018-07-28T23:22:11.069Z,70.55
2018-07-28T23:24:40.253Z,70.92
2018-07-28T23:27:09.557Z,71.88
2018-07-28T23:29:38.748Z,72.01
2018-07-28T23:32:07.924Z,71.92
2018-07-28T23:34:37.133Z,71.47
2018-07-28T23:37:06.541Z,71.97
2018-07-28T23:39:35.696Z,71.91
2018-07-28T23:42:04.866Z,71.68
2018-07-28T23:44:34.028Z,72.09
2018-07-28T23:47:03.244Z,72.23
2018-07-28T23:49:32.414Z,72.48
2018-07-28T23:52:01.613Z,72.65
2018-07-28T23:54:30.849Z,72.12
2018-07-28T23:57:00.009Z,72.31
2018-07-28T23:59:29.150Z,71.60
